createdAt,value
2018-12-14T00:00:01.979Z,47.65
2018-12-14T00:00:33.601Z,47.65
2018-12-14T00:01:05.225Z,47.64
2018-12-14T00:01:36.845Z,47.89
2018-12-14T00:02:08.477Z,47.94
2018-12-14T00:02:40.097Z,47.97
2018-12-14T00:03:11.777Z,48.00
2018-12-14T00:03:43.398Z,47.82
2018-12-14T00:04:15.022Z,48.09
2018-12-14T00:04:46.648Z,48.12
2018-12-14T00:05:18.271Z,48.14
2018-12-14T00:05:49.897Z,48.22
2018-12-14T00:06:21.633Z,48.29
2018-12-14T00:06:53.258Z,48.41
2018-12-14T00:07:24.894Z,48.40
2018-12-14T00:07:56.516Z,41.58
2018-12-14T00:08:28.144Z,38.42
2018-12-14T00:08:59.766Z,38.24
2018-12-14T00:09:31.390Z,39.11
2018-12-14T00:10:03.010Z,39.32
2018-12-14T00:10:34.631Z,40.27
2018-12-14T00:11:06.262Z,42.78
2018-12-14T00:11:37.878Z,43.34
2018-12-14T00:12:09.517Z,43.58
2018-12-14T00:12:41.148Z,43.88
2018-12-14T00:13:12.770Z,43.80
2018-12-14T00:13:44.389Z,43.58
2018-12-14T00:14:16.019Z,43.43
2018-12-14T00:14:47.647Z,43.41
2018-12-14T00:15:19.271Z,43.31
2018-12-14T00:15:50.894Z,43.51
2018-12-14T00:16:22.518Z,43.60
2018-12-14T00:16:54.147Z,43.78
2018-12-14T00:17:25.771Z,43.94
2018-12-14T00:17:57.390Z,44.21
2018-12-14T00:18:29.037Z,44.23
2018-12-14T00:19:00.657Z,44.38
2018-12-14T00:19:32.282Z,44.47
2018-12-14T00:20:03.905Z,44.50
2018-12-14T00:20:35.530Z,44.70
2018-12-14T00:21:07.150Z,44.87
2018-12-14T00:21:38.771Z,45.02
2018-12-14T00:22:10.389Z,45.19
2018-12-14T00:22:42.009Z,45.28
2018-12-14T00:23:13.629Z,45.51
2018-12-14T00:23:45.273Z,45.60
2018-12-14T00:24:16.889Z,45.74
2018-12-14T00:24:48.516Z,45.98
2018-12-14T00:25:20.138Z,46.22
2018-12-14T00:25:51.802Z,46.10
2018-12-14T00:26:23.430Z,46.25
2018-12-14T00:26:55.062Z,46.19
2018-12-14T00:27:26.680Z,46.31
2018-12-14T00:27:58.301Z,46.36
2018-12-14T00:28:29.954Z,46.40
2018-12-14T00:29:01.625Z,46.60
2018-12-14T00:29:33.255Z,46.43
2018-12-14T00:30:04.884Z,46.50
2018-12-14T00:30:36.694Z,46.58
2018-12-14T00:31:08.323Z,46.47
2018-12-14T00:31:39.942Z,46.71
2018-12-14T00:32:11.561Z,46.66
2018-12-14T00:32:43.186Z,46.57
2018-12-14T00:33:14.810Z,46.63
2018-12-14T00:33:46.453Z,46.61
2018-12-14T00:34:18.082Z,46.66
2018-12-14T00:34:49.701Z,46.51
2018-12-14T00:35:21.326Z,46.69
2018-12-14T00:35:52.945Z,46.63
2018-12-14T00:36:24.566Z,46.84
2018-12-14T00:36:56.189Z,46.61
2018-12-14T00:37:27.810Z,46.83
2018-12-14T00:37:59.434Z,46.79
2018-12-14T00:38:31.060Z,46.62
2018-12-14T00:39:02.705Z,46.63
2018-12-14T00:39:34.334Z,46.70
2018-12-14T00:40:05.953Z,46.78
2018-12-14T00:40:37.573Z,46.79
2018-12-14T00:41:09.193Z,46.76
2018-12-14T00:41:40.817Z,46.85
2018-12-14T00:42:12.439Z,46.80
2018-12-14T00:42:44.067Z,46.78
2018-12-14T00:43:15.690Z,46.89
2018-12-14T00:43:47.345Z,46.86
2018-12-14T00:44:18.970Z,46.75
2018-12-14T00:44:50.594Z,46.93
2018-12-14T00:45:22.213Z,46.86
2018-12-14T00:45:53.837Z,46.91
2018-12-14T00:46:25.470Z,46.82
2018-12-14T00:46:57.098Z,46.81
2018-12-14T00:47:28.733Z,47.00
2018-12-14T00:48:00.362Z,46.91
2018-12-14T00:48:31.986Z,46.94
2018-12-14T00:49:03.642Z,46.89
2018-12-14T00:49:35.268Z,46.93
2018-12-14T00:50:06.894Z,47.11
2018-12-14T00:50:38.551Z,47.02
2018-12-14T00:51:10.179Z,47.10
2018-12-14T00:51:41.806Z,47.27
2018-12-14T00:52:13.430Z,47.09
2018-12-14T00:52:45.054Z,47.31
2018-12-14T00:53:16.673Z,47.21
2018-12-14T00:53:48.342Z,47.34
2018-12-14T00:54:19.962Z,47.52
2018-12-14T00:54:51.586Z,47.78
2018-12-14T00:55:23.214Z,47.40
2018-12-14T00:55:54.838Z,47.71
2018-12-14T00:56:26.452Z,47.70
2018-12-14T00:56:58.074Z,47.83
2018-12-14T00:57:29.697Z,47.83
2018-12-14T00:58:01.320Z,47.97
2018-12-14T00:58:32.973Z,47.86
2018-12-14T00:59:04.618Z,47.75
2018-12-14T00:59:36.262Z,48.00
2018-12-14T01:00:07.886Z,47.99
2018-12-14T01:00:39.514Z,48.17
2018-12-14T01:01:11.138Z,48.43
2018-12-14T01:01:42.764Z,48.25
2018-12-14T01:02:20.078Z,48.18
2018-12-14T01:02:51.707Z,48.14
2018-12-14T01:03:23.330Z,48.49
2018-12-14T01:03:54.977Z,48.27
2018-12-14T01:04:26.597Z,48.42
2018-12-14T01:04:58.226Z,48.60
2018-12-14T01:05:29.862Z,48.46
2018-12-14T01:06:01.490Z,48.55
2018-12-14T01:06:33.157Z,48.81
2018-12-14T01:07:04.883Z,48.69
2018-12-14T01:07:36.512Z,48.54
2018-12-14T01:08:08.133Z,48.69
2018-12-14T01:08:39.766Z,48.68
2018-12-14T01:09:11.420Z,48.70
2018-12-14T01:09:43.051Z,48.70
2018-12-14T01:10:14.810Z,48.70
2018-12-14T01:10:46.429Z,48.76
2018-12-14T01:11:18.152Z,48.77
2018-12-14T01:11:49.774Z,49.27
2018-12-14T01:12:21.394Z,49.08
2018-12-14T01:12:53.127Z,49.10
2018-12-14T01:13:24.854Z,48.80
2018-12-14T01:13:56.502Z,49.01
2018-12-14T01:14:28.153Z,48.85
2018-12-14T01:14:59.774Z,48.47
2018-12-14T01:15:31.398Z,48.47
2018-12-14T01:16:03.022Z,48.49
2018-12-14T01:16:34.646Z,48.38
2018-12-14T01:17:06.270Z,48.46
2018-12-14T01:17:37.893Z,48.53
2018-12-14T01:18:09.517Z,48.55
2018-12-14T01:18:41.142Z,48.58
2018-12-14T01:19:12.797Z,48.87
2018-12-14T01:19:44.418Z,48.70
2018-12-14T01:20:16.041Z,48.72
2018-12-14T01:20:47.698Z,48.84
2018-12-14T01:21:19.321Z,48.92
2018-12-14T01:21:50.951Z,48.98
2018-12-14T01:22:22.582Z,48.95
2018-12-14T01:22:54.215Z,49.10
2018-12-14T01:23:25.842Z,49.13
2018-12-14T01:23:57.466Z,49.30
2018-12-14T01:24:29.119Z,49.27
2018-12-14T01:25:00.742Z,49.36
2018-12-14T01:25:32.374Z,49.42
2018-12-14T01:26:03.998Z,49.45
2018-12-14T01:26:35.617Z,49.54
2018-12-14T01:27:07.238Z,49.59
2018-12-14T01:27:38.862Z,49.67
2018-12-14T01:28:10.482Z,49.63
2018-12-14T01:28:42.168Z,49.71
2018-12-14T01:29:13.819Z,49.83
2018-12-14T01:29:45.475Z,50.00
2018-12-14T01:30:17.102Z,49.94
2018-12-14T01:30:48.729Z,50.24
2018-12-14T01:31:20.354Z,50.13
2018-12-14T01:31:51.983Z,50.16
2018-12-14T01:32:23.611Z,50.25
2018-12-14T01:32:55.234Z,50.36
2018-12-14T01:33:26.855Z,50.43
2018-12-14T01:33:58.477Z,50.49
2018-12-14T01:34:30.130Z,50.57
2018-12-14T01:35:01.814Z,50.59
2018-12-14T01:35:33.433Z,50.71
2018-12-14T01:36:05.058Z,50.90
2018-12-14T01:36:36.686Z,50.79
2018-12-14T01:37:08.308Z,50.89
2018-12-14T01:37:39.929Z,50.96
2018-12-14T01:38:11.647Z,50.97
2018-12-14T01:38:43.273Z,51.11
2018-12-14T01:39:14.906Z,51.53
2018-12-14T01:39:46.558Z,51.76
2018-12-14T01:40:18.186Z,51.64
2018-12-14T01:40:49.811Z,51.53
2018-12-14T01:41:21.439Z,51.45
2018-12-14T01:41:53.061Z,51.25
2018-12-14T01:42:24.690Z,51.67
2018-12-14T01:42:56.309Z,51.49
2018-12-14T01:43:27.929Z,51.36
2018-12-14T01:43:59.558Z,51.28
2018-12-14T01:44:31.518Z,51.23
2018-12-14T01:45:03.438Z,51.29
2018-12-14T01:45:35.057Z,51.13
2018-12-14T01:46:06.681Z,51.04
2018-12-14T01:46:38.301Z,51.05
2018-12-14T01:47:09.922Z,50.86
2018-12-14T01:47:41.546Z,50.90
2018-12-14T01:48:13.728Z,50.69
2018-12-14T01:48:44.849Z,50.68
2018-12-14T01:49:16.474Z,50.66
2018-12-14T01:49:48.127Z,50.84
2018-12-14T01:50:19.754Z,50.83
2018-12-14T01:50:51.374Z,50.61
2018-12-14T01:51:23.003Z,50.69
2018-12-14T01:51:54.714Z,50.40
2018-12-14T01:52:26.341Z,50.39
2018-12-14T01:52:57.970Z,50.39
2018-12-14T01:53:29.589Z,50.29
2018-12-14T01:54:01.214Z,50.17
2018-12-14T01:54:32.886Z,50.21
2018-12-14T01:55:04.515Z,50.07
2018-12-14T01:55:36.141Z,50.58
2018-12-14T01:56:07.765Z,50.39
2018-12-14T01:56:39.394Z,50.15
2018-12-14T01:57:11.037Z,50.50
2018-12-14T01:57:42.657Z,50.38
2018-12-14T01:58:14.275Z,50.18
2018-12-14T01:58:45.898Z,50.21
2018-12-14T01:59:17.529Z,50.46
2018-12-14T01:59:49.177Z,50.09
2018-12-14T02:00:20.802Z,50.00
2018-12-14T02:00:52.427Z,50.06
2018-12-14T02:01:24.050Z,50.18
2018-12-14T02:01:55.679Z,49.96
2018-12-14T02:02:27.306Z,49.94
2018-12-14T02:02:58.931Z,50.02
2018-12-14T02:03:30.553Z,49.85
2018-12-14T02:04:02.174Z,49.84
2018-12-14T02:04:34.873Z,49.79
2018-12-14T02:05:05.491Z,49.79
2018-12-14T02:05:37.115Z,49.73
2018-12-14T02:06:08.741Z,49.95
2018-12-14T02:06:40.370Z,49.89
2018-12-14T02:07:11.994Z,49.68
2018-12-14T02:07:43.617Z,49.77
2018-12-14T02:08:15.237Z,49.68
2018-12-14T02:08:46.862Z,49.67
2018-12-14T02:09:18.503Z,49.80
2018-12-14T02:09:50.127Z,49.90
2018-12-14T02:10:21.751Z,49.88
2018-12-14T02:10:53.467Z,49.76
2018-12-14T02:11:25.095Z,49.83
2018-12-14T02:11:56.718Z,49.54
2018-12-14T02:12:28.342Z,49.66
2018-12-14T02:12:59.970Z,49.59
2018-12-14T02:13:31.590Z,49.54
2018-12-14T02:14:03.210Z,49.58
2018-12-14T02:14:34.833Z,49.62
2018-12-14T02:15:06.454Z,49.64
2018-12-14T02:15:38.143Z,49.67
2018-12-14T02:16:09.773Z,49.53
2018-12-14T02:16:41.403Z,49.36
2018-12-14T02:17:13.026Z,49.69
2018-12-14T02:17:44.647Z,49.48
2018-12-14T02:18:16.283Z,49.51
2018-12-14T02:18:47.911Z,49.87
2018-12-14T02:19:19.539Z,49.59
2018-12-14T02:19:51.208Z,49.45
2018-12-14T02:20:22.888Z,49.47
2018-12-14T02:20:54.510Z,49.55
2018-12-14T02:21:26.130Z,49.48
2018-12-14T02:21:57.756Z,49.74
2018-12-14T02:22:29.385Z,49.62
2018-12-14T02:23:01.001Z,49.56
2018-12-14T02:23:32.626Z,49.64
2018-12-14T02:24:04.250Z,49.55
2018-12-14T02:24:35.878Z,49.66
2018-12-14T02:25:07.531Z,49.65
2018-12-14T02:25:39.149Z,49.68
2018-12-14T02:26:10.773Z,49.80
2018-12-14T02:26:42.391Z,49.77
2018-12-14T02:27:14.022Z,49.77
2018-12-14T02:27:45.652Z,49.90
2018-12-14T02:28:17.283Z,49.99
2018-12-14T02:28:48.906Z,49.96
2018-12-14T02:29:20.530Z,49.95
2018-12-14T02:29:52.159Z,49.96
2018-12-14T02:30:23.811Z,49.96
2018-12-14T02:30:55.442Z,50.06
2018-12-14T02:31:27.066Z,49.99
2018-12-14T02:31:58.723Z,50.13
2018-12-14T02:32:30.354Z,50.03
2018-12-14T02:33:01.974Z,50.00
2018-12-14T02:33:33.607Z,50.11
2018-12-14T02:34:05.231Z,50.19
2018-12-14T02:34:36.858Z,50.23
2018-12-14T02:35:08.502Z,50.23
2018-12-14T02:35:40.123Z,50.11
2018-12-14T02:36:11.749Z,50.13
2018-12-14T02:36:43.375Z,50.18
2018-12-14T02:37:15.007Z,50.17
2018-12-14T02:37:46.629Z,50.23
2018-12-14T02:38:18.249Z,50.28
2018-12-14T02:38:49.869Z,50.33
2018-12-14T02:39:21.482Z,50.50
2018-12-14T02:39:53.110Z,50.43
2018-12-14T02:40:24.762Z,50.59
2018-12-14T02:40:56.402Z,50.43
2018-12-14T02:41:28.021Z,50.56
2018-12-14T02:41:59.647Z,50.60
2018-12-14T02:42:31.267Z,50.58
2018-12-14T02:43:02.896Z,50.56
2018-12-14T02:43:34.521Z,50.58
2018-12-14T02:44:06.150Z,50.59
2018-12-14T02:44:37.770Z,50.74
2018-12-14T02:45:09.422Z,50.80
2018-12-14T02:45:41.046Z,50.80
2018-12-14T02:46:12.674Z,50.93
2018-12-14T02:46:44.299Z,50.89
2018-12-14T02:47:15.918Z,50.78
2018-12-14T02:47:47.547Z,51.23
2018-12-14T02:48:19.170Z,50.93
2018-12-14T02:48:50.791Z,50.89
2018-12-14T02:49:22.416Z,50.97
2018-12-14T02:49:54.044Z,50.79
2018-12-14T02:50:25.690Z,50.98
2018-12-14T02:50:57.315Z,51.11
2018-12-14T02:51:28.940Z,50.93
2018-12-14T02:52:00.561Z,51.09
2018-12-14T02:52:32.182Z,51.32
2018-12-14T02:53:03.797Z,51.20
2018-12-14T02:53:35.424Z,51.30
2018-12-14T02:54:07.054Z,51.35
2018-12-14T02:54:38.696Z,51.20
2018-12-14T02:55:10.319Z,51.34
2018-12-14T02:55:41.970Z,51.35
2018-12-14T02:56:13.597Z,51.21
2018-12-14T02:56:45.218Z,51.34
2018-12-14T02:57:16.838Z,51.20
2018-12-14T02:57:48.461Z,51.16
2018-12-14T02:58:20.108Z,51.28
2018-12-14T02:58:51.731Z,51.31
2018-12-14T02:59:23.354Z,51.25
2018-12-14T02:59:54.977Z,51.15
2018-12-14T03:00:26.621Z,51.25
2018-12-14T03:00:58.250Z,51.25
2018-12-14T03:01:29.874Z,51.26
2018-12-14T03:02:01.491Z,51.13
2018-12-14T03:02:33.120Z,51.16
2018-12-14T03:03:04.753Z,51.24
2018-12-14T03:03:36.385Z,51.08
2018-12-14T03:04:08.022Z,51.03
2018-12-14T03:04:39.651Z,51.08
2018-12-14T03:05:11.277Z,51.25
2018-12-14T03:05:42.946Z,50.94
2018-12-14T03:06:14.575Z,50.97
2018-12-14T03:06:46.201Z,50.92
2018-12-14T03:07:17.826Z,50.92
2018-12-14T03:07:49.452Z,50.90
2018-12-14T03:08:21.070Z,51.11
2018-12-14T03:08:52.686Z,50.91
2018-12-14T03:09:24.309Z,50.99
2018-12-14T03:09:55.931Z,50.92
2018-12-14T03:10:27.598Z,50.79
2018-12-14T03:10:59.226Z,50.85
2018-12-14T03:11:30.850Z,51.17
2018-12-14T03:12:02.474Z,51.10
2018-12-14T03:12:34.100Z,50.97
2018-12-14T03:13:05.746Z,51.03
2018-12-14T03:13:37.383Z,50.90
2018-12-14T03:14:09.011Z,51.02
2018-12-14T03:14:40.649Z,51.27
2018-12-14T03:15:12.283Z,51.14
2018-12-14T03:15:43.946Z,51.37
2018-12-14T03:16:15.575Z,51.35
2018-12-14T03:16:47.213Z,51.30
2018-12-14T03:17:18.836Z,51.36
2018-12-14T03:17:50.463Z,51.44
2018-12-14T03:18:22.081Z,51.39
2018-12-14T03:18:53.702Z,51.76
2018-12-14T03:19:25.331Z,51.75
2018-12-14T03:19:56.962Z,52.03
2018-12-14T03:20:28.641Z,51.95
2018-12-14T03:21:00.265Z,52.12
2018-12-14T03:21:31.887Z,51.87
2018-12-14T03:22:03.526Z,52.13
2018-12-14T03:22:35.154Z,52.26
2018-12-14T03:23:06.778Z,52.31
2018-12-14T03:23:38.422Z,52.07
2018-12-14T03:24:10.048Z,52.00
2018-12-14T03:24:41.671Z,52.07
2018-12-14T03:25:13.295Z,52.16
2018-12-14T03:25:44.954Z,52.35
2018-12-14T03:26:16.573Z,52.06
2018-12-14T03:26:48.194Z,52.09
2018-12-14T03:27:19.818Z,52.23
2018-12-14T03:27:51.438Z,52.15
2018-12-14T03:28:23.060Z,52.32
2018-12-14T03:28:54.686Z,52.25
2018-12-14T03:29:26.325Z,52.17
2018-12-14T03:29:57.946Z,52.39
2018-12-14T03:30:29.569Z,52.33
2018-12-14T03:31:01.232Z,52.39
2018-12-14T03:31:32.854Z,52.19
2018-12-14T03:32:04.479Z,52.08
2018-12-14T03:32:36.107Z,52.35
2018-12-14T03:33:07.737Z,52.21
2018-12-14T03:33:39.401Z,51.95
2018-12-14T03:34:11.022Z,52.23
2018-12-14T03:34:42.642Z,52.09
2018-12-14T03:35:14.279Z,52.18
2018-12-14T03:35:45.930Z,52.07
2018-12-14T03:36:17.558Z,52.04
2018-12-14T03:36:49.187Z,51.96
2018-12-14T03:37:20.814Z,51.96
2018-12-14T03:37:52.455Z,51.90
2018-12-14T03:38:24.079Z,51.92
2018-12-14T03:38:55.805Z,51.93
2018-12-14T03:39:27.436Z,52.07
2018-12-14T03:39:59.137Z,52.32
2018-12-14T03:40:30.821Z,51.96
2018-12-14T03:41:02.587Z,51.98
2018-12-14T03:41:34.210Z,52.19
2018-12-14T03:42:05.834Z,52.20
2018-12-14T03:42:37.462Z,52.27
2018-12-14T03:43:09.097Z,52.01
2018-12-14T03:43:40.792Z,52.11
2018-12-14T03:44:12.430Z,52.22
2018-12-14T03:44:44.061Z,53.09
2018-12-14T03:45:15.687Z,52.32
2018-12-14T03:45:47.342Z,52.62
2018-12-14T03:46:18.961Z,52.53
2018-12-14T03:46:50.582Z,53.00
2018-12-14T03:47:22.206Z,52.55
2018-12-14T03:47:53.825Z,52.68
2018-12-14T03:48:25.447Z,52.67
2018-12-14T03:48:57.076Z,52.57
2018-12-14T03:49:28.718Z,52.72
2018-12-14T03:50:00.351Z,52.54
2018-12-14T03:50:31.981Z,52.77
2018-12-14T03:51:03.630Z,52.94
2018-12-14T03:51:35.253Z,53.10
2018-12-14T03:52:06.876Z,52.74
2018-12-14T03:52:38.505Z,52.79
2018-12-14T03:53:10.140Z,52.91
2018-12-14T03:53:41.766Z,52.83
2018-12-14T03:54:13.390Z,53.05
2018-12-14T03:54:45.014Z,52.67
2018-12-14T03:55:16.646Z,53.01
2018-12-14T03:55:48.280Z,53.05
2018-12-14T03:56:19.907Z,53.00
2018-12-14T03:56:51.526Z,53.00
2018-12-14T03:57:23.147Z,53.03
2018-12-14T03:57:54.771Z,53.10
2018-12-14T03:58:26.398Z,53.17
2018-12-14T03:58:58.021Z,52.91
2018-12-14T03:59:29.650Z,52.87
2018-12-14T04:00:01.282Z,52.90
2018-12-14T04:00:32.918Z,53.06
2018-12-14T04:01:04.561Z,52.97
2018-12-14T04:01:36.190Z,52.94
2018-12-14T04:02:07.821Z,52.96
2018-12-14T04:02:39.441Z,53.03
2018-12-14T04:03:11.066Z,53.07
2018-12-14T04:03:42.689Z,52.92
2018-12-14T04:04:14.312Z,52.78
2018-12-14T04:04:45.951Z,52.87
2018-12-14T04:05:17.577Z,53.03
2018-12-14T04:05:49.198Z,52.84
2018-12-14T04:06:20.818Z,52.83
2018-12-14T04:06:52.433Z,52.86
2018-12-14T04:07:24.058Z,52.92
2018-12-14T04:07:55.687Z,52.83
2018-12-14T04:08:27.313Z,52.77
2018-12-14T04:08:58.934Z,52.76
2018-12-14T04:09:30.558Z,52.72
2018-12-14T04:10:02.200Z,52.86
2018-12-14T04:10:33.821Z,52.74
2018-12-14T04:11:05.471Z,53.31
2018-12-14T04:11:37.094Z,53.27
2018-12-14T04:12:08.717Z,53.34
2018-12-14T04:12:41.871Z,53.45
2018-12-14T04:13:12.030Z,53.30
2018-12-14T04:13:43.660Z,53.44
2018-12-14T04:14:15.290Z,53.30
2018-12-14T04:14:46.930Z,53.33
2018-12-14T04:15:18.562Z,53.40
2018-12-14T04:15:50.182Z,53.47
2018-12-14T04:16:21.811Z,53.40
2018-12-14T04:16:53.435Z,53.34
2018-12-14T04:17:25.059Z,53.51
2018-12-14T04:17:56.683Z,53.46
2018-12-14T04:18:28.315Z,53.43
2018-12-14T04:18:59.953Z,53.55
2018-12-14T04:19:31.599Z,53.56
2018-12-14T04:20:03.222Z,53.41
2018-12-14T04:20:34.854Z,53.23
2018-12-14T04:21:06.525Z,53.45
2018-12-14T04:21:38.146Z,53.48
2018-12-14T04:22:09.788Z,53.51
2018-12-14T04:22:41.410Z,53.64
2018-12-14T04:23:13.032Z,53.80
2018-12-14T04:23:44.720Z,53.54
2018-12-14T04:24:16.347Z,53.86
2018-12-14T04:24:48.042Z,53.61
2018-12-14T04:25:19.673Z,53.91
2018-12-14T04:25:51.302Z,53.77
2018-12-14T04:26:22.954Z,53.78
2018-12-14T04:26:54.583Z,53.85
2018-12-14T04:27:26.215Z,53.92
2018-12-14T04:27:57.839Z,53.77
2018-12-14T04:28:29.457Z,53.73
2018-12-14T04:29:01.082Z,53.94
2018-12-14T04:29:32.725Z,54.21
2018-12-14T04:30:04.357Z,54.04
2018-12-14T04:30:35.986Z,54.24
2018-12-14T04:31:07.621Z,54.08
2018-12-14T04:31:39.268Z,53.93
2018-12-14T04:32:10.885Z,54.09
2018-12-14T04:32:42.508Z,54.10
2018-12-14T04:33:14.138Z,54.10
2018-12-14T04:33:45.758Z,53.92
2018-12-14T04:34:17.379Z,53.98
2018-12-14T04:34:49.001Z,54.07
2018-12-14T04:35:20.630Z,54.06
2018-12-14T04:35:52.262Z,54.08
2018-12-14T04:36:23.917Z,54.14
2018-12-14T04:36:55.543Z,54.02
2018-12-14T04:37:27.166Z,54.02
2018-12-14T04:37:58.785Z,54.16
2018-12-14T04:38:30.409Z,54.43
2018-12-14T04:39:02.039Z,54.42
2018-12-14T04:39:33.668Z,54.25
2018-12-14T04:40:05.308Z,54.11
2018-12-14T04:40:36.940Z,54.25
2018-12-14T04:41:08.568Z,54.14
2018-12-14T04:41:40.222Z,54.23
2018-12-14T04:42:11.842Z,54.07
2018-12-14T04:42:48.842Z,54.10
2018-12-14T04:43:15.171Z,54.39
2018-12-14T04:43:46.798Z,54.32
2018-12-14T04:44:18.486Z,54.38
2018-12-14T04:44:50.111Z,54.44
2018-12-14T04:45:21.742Z,54.35
2018-12-14T04:45:53.366Z,54.19
2018-12-14T04:46:25.039Z,54.44
2018-12-14T04:46:56.657Z,54.45
2018-12-14T04:47:28.278Z,54.24
2018-12-14T04:47:59.893Z,54.59
2018-12-14T04:48:31.514Z,54.41
2018-12-14T04:49:03.138Z,54.17
2018-12-14T04:49:34.761Z,54.36
2018-12-14T04:50:06.390Z,54.12
2018-12-14T04:50:38.017Z,54.19
2018-12-14T04:51:09.641Z,54.04
2018-12-14T04:51:41.295Z,54.09
2018-12-14T04:52:12.932Z,54.06
2018-12-14T04:52:44.562Z,54.03
2018-12-14T04:53:16.205Z,53.95
2018-12-14T04:53:47.855Z,53.86
2018-12-14T04:54:19.483Z,53.75
2018-12-14T04:54:51.110Z,54.29
2018-12-14T04:55:22.733Z,53.85
2018-12-14T04:55:54.362Z,53.95
2018-12-14T04:56:25.990Z,54.00
2018-12-14T04:56:57.638Z,53.85
2018-12-14T04:57:29.271Z,53.63
2018-12-14T04:58:00.891Z,53.54
2018-12-14T04:58:32.603Z,53.37
2018-12-14T04:59:04.230Z,53.54
2018-12-14T04:59:35.854Z,53.31
2018-12-14T05:00:07.481Z,53.25
2018-12-14T05:00:39.112Z,53.22
2018-12-14T05:01:10.730Z,53.01
2018-12-14T05:01:42.379Z,52.97
2018-12-14T05:02:14.006Z,53.23
2018-12-14T05:02:45.688Z,53.20
2018-12-14T05:03:17.319Z,52.89
2018-12-14T05:03:48.946Z,52.96
2018-12-14T05:04:20.569Z,52.86
2018-12-14T05:04:52.190Z,53.30
2018-12-14T05:05:23.822Z,52.86
2018-12-14T05:05:55.444Z,52.71
2018-12-14T05:06:27.072Z,52.78
2018-12-14T05:06:58.721Z,52.78
2018-12-14T05:07:30.357Z,52.64
2018-12-14T05:08:01.982Z,52.61
2018-12-14T05:08:33.607Z,52.68
2018-12-14T05:09:05.237Z,52.55
2018-12-14T05:09:36.861Z,52.41
2018-12-14T05:10:08.501Z,52.46
2018-12-14T05:10:40.122Z,52.37
2018-12-14T05:11:11.755Z,52.42
2018-12-14T05:11:43.427Z,52.29
2018-12-14T05:12:15.051Z,52.37
2018-12-14T05:12:46.678Z,52.22
2018-12-14T05:13:18.391Z,52.37
2018-12-14T05:13:50.019Z,52.57
2018-12-14T05:14:21.648Z,52.20
2018-12-14T05:14:53.280Z,52.25
2018-12-14T05:15:24.907Z,52.29
2018-12-14T05:15:56.529Z,52.21
2018-12-14T05:16:28.158Z,52.19
2018-12-14T05:16:59.842Z,52.36
2018-12-14T05:17:31.477Z,52.22
2018-12-14T05:18:03.098Z,52.31
2018-12-14T05:18:34.723Z,52.25
2018-12-14T05:19:06.353Z,52.27
2018-12-14T05:19:37.974Z,52.20
2018-12-14T05:20:09.598Z,52.42
2018-12-14T05:20:41.285Z,52.35
2018-12-14T05:21:12.909Z,52.31
2018-12-14T05:21:44.540Z,52.35
2018-12-14T05:22:16.189Z,52.42
2018-12-14T05:22:47.810Z,52.39
2018-12-14T05:23:19.438Z,52.27
2018-12-14T05:23:51.066Z,52.30
2018-12-14T05:24:22.688Z,52.28
2018-12-14T05:24:54.306Z,52.45
2018-12-14T05:25:25.930Z,52.40
2018-12-14T05:25:57.554Z,52.35
2018-12-14T05:26:29.174Z,52.33
2018-12-14T05:27:00.866Z,52.42
2018-12-14T05:27:32.489Z,52.45
2018-12-14T05:28:04.110Z,52.46
2018-12-14T05:28:35.731Z,52.46
2018-12-14T05:29:07.415Z,52.46
2018-12-14T05:29:39.085Z,52.50
2018-12-14T05:30:10.719Z,52.61
2018-12-14T05:30:42.337Z,52.62
2018-12-14T05:31:13.962Z,52.61
2018-12-14T05:31:45.582Z,52.70
2018-12-14T05:32:17.230Z,52.80
2018-12-14T05:32:48.859Z,52.82
2018-12-14T05:33:20.487Z,52.98
2018-12-14T05:33:52.111Z,52.75
2018-12-14T05:34:25.838Z,52.80
2018-12-14T05:34:57.751Z,53.10
2018-12-14T05:35:29.966Z,53.03
2018-12-14T05:36:01.619Z,52.97
2018-12-14T05:36:33.251Z,52.87
2018-12-14T05:37:04.910Z,52.94
2018-12-14T05:37:36.536Z,53.05
2018-12-14T05:38:08.157Z,53.06
2018-12-14T05:38:39.786Z,53.05
2018-12-14T05:39:11.410Z,52.98
2018-12-14T05:39:43.039Z,53.14
2018-12-14T05:40:14.661Z,53.13
2018-12-14T05:40:46.282Z,53.03
2018-12-14T05:41:17.992Z,53.16
2018-12-14T05:41:49.614Z,53.31
2018-12-14T05:42:21.263Z,53.23
2018-12-14T05:42:52.884Z,53.33
2018-12-14T05:43:24.510Z,53.24
2018-12-14T05:43:56.130Z,53.14
2018-12-14T05:44:27.750Z,53.26
2018-12-14T05:44:59.371Z,53.27
2018-12-14T05:45:30.989Z,53.51
2018-12-14T05:46:02.618Z,53.54
2018-12-14T05:46:34.241Z,53.55
2018-12-14T05:47:05.918Z,53.59
2018-12-14T05:47:37.537Z,53.67
2018-12-14T05:48:09.158Z,53.60
2018-12-14T05:48:40.785Z,53.68
2018-12-14T05:49:12.429Z,53.67
2018-12-14T05:49:44.049Z,53.68
2018-12-14T05:50:15.678Z,53.81
2018-12-14T05:50:47.297Z,53.57
2018-12-14T05:51:18.922Z,53.63
2018-12-14T05:51:50.542Z,53.72
2018-12-14T05:52:22.194Z,53.58
2018-12-14T05:52:53.813Z,53.76
2018-12-14T05:53:25.470Z,53.75
2018-12-14T05:53:57.098Z,53.84
2018-12-14T05:54:28.721Z,53.77
2018-12-14T05:55:00.354Z,53.78
2018-12-14T05:55:31.973Z,53.95
2018-12-14T05:56:03.598Z,53.78
2018-12-14T05:56:35.217Z,54.00
2018-12-14T05:57:06.843Z,53.91
2018-12-14T05:57:38.486Z,53.92
2018-12-14T05:58:10.106Z,54.04
2018-12-14T05:58:41.735Z,54.02
2018-12-14T05:59:13.353Z,53.95
2018-12-14T05:59:44.970Z,54.02
2018-12-14T06:00:16.590Z,54.01
2018-12-14T06:00:48.209Z,54.10
2018-12-14T06:01:19.829Z,54.08
2018-12-14T06:01:51.458Z,54.02
2018-12-14T06:02:23.112Z,54.19
2018-12-14T06:02:54.730Z,54.20
2018-12-14T06:03:26.358Z,54.31
2018-12-14T06:03:57.986Z,54.47
2018-12-14T06:04:29.609Z,54.20
2018-12-14T06:05:01.231Z,54.22
2018-12-14T06:05:32.858Z,54.33
2018-12-14T06:06:04.477Z,54.35
2018-12-14T06:06:36.141Z,54.38
2018-12-14T06:07:07.762Z,54.26
2018-12-14T06:07:39.382Z,54.21
2018-12-14T06:08:11.010Z,54.39
2018-12-14T06:08:42.638Z,54.47
2018-12-14T06:09:14.886Z,54.48
2018-12-14T06:09:45.954Z,54.32
2018-12-14T06:10:17.582Z,54.37
2018-12-14T06:10:49.201Z,54.18
2018-12-14T06:11:20.833Z,54.23
2018-12-14T06:11:52.462Z,54.15
2018-12-14T06:12:24.231Z,54.13
2018-12-14T06:12:55.853Z,54.15
2018-12-14T06:13:27.489Z,54.25
2018-12-14T06:13:59.117Z,53.84
2018-12-14T06:14:32.245Z,53.93
2018-12-14T06:15:03.875Z,54.00
2018-12-14T06:15:35.502Z,53.94
2018-12-14T06:16:07.122Z,53.94
2018-12-14T06:16:38.746Z,53.91
2018-12-14T06:17:10.365Z,53.76
2018-12-14T06:17:41.989Z,54.00
2018-12-14T06:18:13.611Z,53.84
2018-12-14T06:18:45.238Z,54.13
2018-12-14T06:19:16.857Z,53.94
2018-12-14T06:19:48.482Z,53.87
2018-12-14T06:20:20.110Z,53.66
2018-12-14T06:20:51.742Z,53.90
2018-12-14T06:21:23.362Z,53.58
2018-12-14T06:21:54.982Z,53.48
2018-12-14T06:22:26.606Z,53.35
2018-12-14T06:22:58.226Z,53.39
2018-12-14T06:23:29.855Z,53.88
2018-12-14T06:24:01.478Z,53.60
2018-12-14T06:24:33.102Z,53.56
2018-12-14T06:25:04.731Z,53.64
2018-12-14T06:25:36.365Z,53.50
2018-12-14T06:26:07.998Z,53.51
2018-12-14T06:26:39.617Z,54.06
2018-12-14T06:27:11.238Z,53.54
2018-12-14T06:27:42.885Z,53.63
2018-12-14T06:28:14.510Z,53.38
2018-12-14T06:28:46.135Z,53.55
2018-12-14T06:29:17.754Z,53.39
2018-12-14T06:29:49.377Z,53.52
2018-12-14T06:30:20.998Z,53.45
2018-12-14T06:30:52.633Z,53.73
2018-12-14T06:31:24.254Z,53.33
2018-12-14T06:31:55.878Z,53.43
2018-12-14T06:32:27.497Z,53.37
2018-12-14T06:32:59.148Z,53.22
2018-12-14T06:33:30.774Z,53.31
2018-12-14T06:34:02.405Z,53.14
2018-12-14T06:34:34.030Z,53.17
2018-12-14T06:35:05.650Z,53.11
2018-12-14T06:35:37.277Z,53.47
2018-12-14T06:36:08.899Z,53.14
2018-12-14T06:36:40.518Z,53.26
2018-12-14T06:37:12.146Z,53.11
2018-12-14T06:37:43.799Z,53.18
2018-12-14T06:38:15.422Z,53.10
2018-12-14T06:38:47.046Z,53.08
2018-12-14T06:39:18.670Z,53.18
2018-12-14T06:39:50.289Z,53.16
2018-12-14T06:40:21.912Z,53.04
2018-12-14T06:40:53.534Z,53.04
2018-12-14T06:41:25.157Z,53.10
2018-12-14T06:41:56.850Z,53.34
2018-12-14T06:42:28.474Z,53.14
2018-12-14T06:43:00.126Z,53.24
2018-12-14T06:43:31.754Z,53.17
2018-12-14T06:44:03.381Z,53.30
2018-12-14T06:44:35.009Z,53.13
2018-12-14T06:45:06.633Z,53.27
2018-12-14T06:45:38.254Z,53.53
2018-12-14T06:46:09.874Z,53.56
2018-12-14T06:46:41.498Z,53.33
2018-12-14T06:47:13.118Z,53.48